PVL902 CYXU-CYKF
Flight info
| Callsign | PVL902 |
|---|---|
| Flight time | 0h 12m |
| Altitude | 9000 |
| Route | TETOS |
| Aircraft | DH8D/M-SDE2E3FGRY/H |
Departure
| Time | 2026-04-25 00:24 |
|---|---|
| Airport | London International Airport (CYXU) |
Arrival
| Time | 2026-04-25 00:36 |
|---|---|
| Airport | Region of Waterloo International Airport (CYKF) |
| Time | Latitude | Longitude | Altitude | Speed | Heading |
|---|---|---|---|---|---|
| 2026-04-25 00:06 | 43.02945 | -81.14866 | 906 ft | 0 kts | 230° |
| 2026-04-25 00:16 | 43.02953 | -81.14853 | 906 ft | 2 kts | 230° |
| 2026-04-25 00:17 | 43.02963 | -81.14838 | 906 ft | 2 kts | 239° |
| 2026-04-25 00:17 | 43.02966 | -81.14819 | 906 ft | 2 kts | 275° |
| 2026-04-25 00:17 | 43.02961 | -81.14799 | 906 ft | 2 kts | 309° |
| 2026-04-25 00:17 | 43.02956 | -81.14793 | 906 ft | 0 kts | 320° |
| 2026-04-25 00:19 | 43.02957 | -81.14794 | 906 ft | 1 kts | 320° |
| 2026-04-25 00:19 | 43.03017 | -81.14863 | 906 ft | 14 kts | 311° |
| 2026-04-25 00:19 | 43.03096 | -81.14961 | 906 ft | 16 kts | 321° |
| 2026-04-25 00:20 | 43.03185 | -81.15067 | 907 ft | 17 kts | 318° |
| 2026-04-25 00:20 | 43.03313 | -81.15221 | 909 ft | 25 kts | 319° |
| 2026-04-25 00:20 | 43.03448 | -81.15382 | 912 ft | 26 kts | 319° |
| 2026-04-25 00:20 | 43.03597 | -81.15558 | 915 ft | 27 kts | 320° |
| 2026-04-25 00:21 | 43.03699 | -81.15708 | 915 ft | 20 kts | 279° |
| 2026-04-25 00:21 | 43.03677 | -81.15904 | 913 ft | 20 kts | 259° |
| 2026-04-25 00:21 | 43.03654 | -81.16077 | 913 ft | 17 kts | 259° |
| 2026-04-25 00:21 | 43.03636 | -81.16196 | 913 ft | 10 kts | 256° |
| 2026-04-25 00:22 | 43.03643 | -81.16252 | 913 ft | 7 kts | 338° |
| 2026-04-25 00:22 | 43.03688 | -81.16271 | 912 ft | 9 kts | 347° |
| 2026-04-25 00:22 | 43.03721 | -81.16282 | 912 ft | 0 kts | 347° |
| 2026-04-25 00:24 | 43.03727 | -81.16283 | 912 ft | 8 kts | 349° |
| 2026-04-25 00:24 | 43.03811 | -81.16261 | 911 ft | 14 kts | 61° |
| 2026-04-25 00:24 | 43.03882 | -81.15816 | 915 ft | 98 kts | 81° |
| 2026-04-25 00:24 | 43.04046 | -81.14770 | 1618 ft | 124 kts | 81° |
| 2026-04-25 00:25 | 43.04247 | -81.13607 | 2437 ft | 141 kts | 81° |
| 2026-04-25 00:25 | 43.04483 | -81.12212 | 3176 ft | 164 kts | 81° |
| 2026-04-25 00:25 | 43.04757 | -81.10541 | 3653 ft | 200 kts | 80° |
| 2026-04-25 00:25 | 43.05081 | -81.08512 | 3900 ft | 240 kts | 80° |
| 2026-04-25 00:26 | 43.05444 | -81.06123 | 3980 ft | 263 kts | 80° |
| 2026-04-25 00:26 | 43.05817 | -81.03709 | 3991 ft | 255 kts | 80° |
| 2026-04-25 00:26 | 43.06181 | -81.01397 | 3980 ft | 249 kts | 79° |
| 2026-04-25 00:26 | 43.06531 | -80.99043 | 3140 ft | 268 kts | 81° |
| 2026-04-25 00:27 | 43.07371 | -80.96729 | 1873 ft | 279 kts | 52° |
| 2026-04-25 00:27 | 43.08601 | -80.95003 | 2206 ft | 227 kts | 51° |
| 2026-04-25 00:27 | 43.09611 | -80.93468 | 2720 ft | 219 kts | 51° |
| 2026-04-25 00:27 | 43.10650 | -80.91912 | 3294 ft | 226 kts | 49° |
| 2026-04-25 00:28 | 43.11739 | -80.90349 | 3880 ft | 234 kts | 47° |
| 2026-04-25 00:28 | 43.12907 | -80.88731 | 4485 ft | 241 kts | 46° |
| 2026-04-25 00:28 | 43.14125 | -80.87085 | 4842 ft | 256 kts | 45° |
| 2026-04-25 00:28 | 43.15444 | -80.85335 | 4956 ft | 269 kts | 44° |
| 2026-04-25 00:29 | 43.16788 | -80.83587 | 4992 ft | 265 kts | 43° |
| 2026-04-25 00:29 | 43.18116 | -80.81874 | 4991 ft | 262 kts | 43° |
| 2026-04-25 00:29 | 43.19447 | -80.80159 | 4999 ft | 260 kts | 43° |
| 2026-04-25 00:29 | 43.20762 | -80.78468 | 5003 ft | 260 kts | 43° |
| 2026-04-25 00:30 | 43.22071 | -80.76788 | 4994 ft | 259 kts | 43° |
| 2026-04-25 00:30 | 43.23388 | -80.75098 | 4993 ft | 258 kts | 44° |
| 2026-04-25 00:30 | 43.24696 | -80.73421 | 4962 ft | 258 kts | 43° |
| 2026-04-25 00:30 | 43.26008 | -80.71738 | 4949 ft | 257 kts | 44° |
| 2026-04-25 00:31 | 43.27316 | -80.70061 | 4942 ft | 256 kts | 43° |
| 2026-04-25 00:31 | 43.28618 | -80.68392 | 4944 ft | 256 kts | 43° |
| 2026-04-25 00:31 | 43.29911 | -80.66733 | 4942 ft | 255 kts | 43° |
| 2026-04-25 00:31 | 43.31227 | -80.65118 | 4945 ft | 255 kts | 39° |
| 2026-04-25 00:32 | 43.32642 | -80.63673 | 4958 ft | 254 kts | 36° |
| 2026-04-25 00:32 | 43.34091 | -80.62239 | 4957 ft | 254 kts | 36° |
| 2026-04-25 00:32 | 43.35519 | -80.60827 | 4956 ft | 254 kts | 36° |
| 2026-04-25 00:32 | 43.36928 | -80.59434 | 4986 ft | 238 kts | 36° |
| 2026-04-25 00:33 | 43.38218 | -80.58164 | 4950 ft | 216 kts | 36° |
| 2026-04-25 00:33 | 43.39379 | -80.57002 | 4938 ft | 193 kts | 39° |
| 2026-04-25 00:33 | 43.40143 | -80.55666 | 4848 ft | 173 kts | 64° |
| 2026-04-25 00:33 | 43.40672 | -80.54140 | 4302 ft | 182 kts | 67° |
| 2026-04-25 00:34 | 43.41221 | -80.52520 | 3673 ft | 195 kts | 68° |
| 2026-04-25 00:34 | 43.41799 | -80.50816 | 3074 ft | 203 kts | 68° |
| 2026-04-25 00:34 | 43.42389 | -80.49078 | 2714 ft | 195 kts | 68° |
| 2026-04-25 00:34 | 43.42917 | -80.47494 | 2496 ft | 169 kts | 68° |
| 2026-04-25 00:35 | 43.43386 | -80.46111 | 2295 ft | 151 kts | 69° |
| 2026-04-25 00:35 | 43.43824 | -80.44855 | 1979 ft | 142 kts | 67° |
| 2026-04-25 00:35 | 43.44221 | -80.43655 | 1688 ft | 139 kts | 69° |
| 2026-04-25 00:35 | 43.44622 | -80.42399 | 1483 ft | 149 kts | 68° |
| 2026-04-25 00:36 | 43.45078 | -80.41042 | 1404 ft | 160 kts | 68° |
| 2026-04-25 00:36 | 43.45573 | -80.39600 | 1206 ft | 168 kts | 64° |
| 2026-04-25 00:36 | 43.46026 | -80.38271 | 1062 ft | 139 kts | 66° |
| 2026-04-25 00:36 | 43.46242 | -80.37627 | 1047 ft | 30 kts | 65° |
| 2026-04-25 00:37 | 43.46342 | -80.37347 | 1051 ft | 22 kts | 65° |
| 2026-04-25 00:37 | 43.46346 | -80.37198 | 1051 ft | 12 kts | 139° |
| 2026-04-25 00:37 | 43.46270 | -80.37186 | 1051 ft | 16 kts | 195° |
| 2026-04-25 00:37 | 43.46207 | -80.37265 | 1050 ft | 16 kts | 244° |
| 2026-04-25 00:38 | 43.46145 | -80.37446 | 1047 ft | 28 kts | 245° |
| 2026-04-25 00:38 | 43.46063 | -80.37691 | 1042 ft | 31 kts | 244° |
| 2026-04-25 00:38 | 43.45962 | -80.37988 | 1038 ft | 31 kts | 244° |
| 2026-04-25 00:38 | 43.45876 | -80.38241 | 1035 ft | 26 kts | 245° |
| 2026-04-25 00:39 | 43.45816 | -80.38428 | 1034 ft | 26 kts | 245° |
| 2026-04-25 00:39 | 43.45708 | -80.38602 | 1034 ft | 14 kts | 208° |
| 2026-04-25 00:39 | 43.45692 | -80.38615 | 1034 ft | 0 kts | 212° |
| 2026-04-25 00:39 | 43.45691 | -80.38617 | 1034 ft | 0 kts | 212° |